Time;durP1;ratioP1;P1;durP2;ratioP2;P2;SDS_P1;SDS_P2;PMS_P1;PMS_P2;Temp;Humidity;BMP_temperature;BMP_pressure;BME280_temperature;BME280_humidity;BME280_pressure;Samples;Min_cycle;Max_cycle;Signal;HPM_P1;HPM_P2
2023/10/02 00:04:35;;;;;;;28.48;21.30;;;;;;;13.53;79.98;98228.78;10365696;28;20547;-51
2023/10/02 00:09:35;;;;;;;;;;;;;;;13.48;79.90;98238.38;10365680;28;20573;-52
2023/10/02 00:14:38;;;;;;;26.85;20.13;;;;;;;13.15;80.38;98226.38;10365757;28;20390;-48
2023/10/02 00:19:44;;;;;;;28.63;21.90;;;;;;;13.30;79.40;98226.28;10365868;28;20131;-51
2023/10/02 00:24:47;;;;;;;31.17;21.10;;;;;;;13.32;79.16;98228.91;10365502;28;20123;-49
2023/10/02 00:29:51;;;;;;;28.75;21.30;;;;;;;13.32;78.89;98228.91;10364996;28;20538;-49
2023/10/02 00:34:50;;;;;;;30.27;21.73;;;;;;;13.35;78.97;98231.47;10365346;28;20080;-50
2023/10/02 00:39:52;;;;;;;;;;;;;;;13.35;79.16;98228.88;10365754;28;20091;-49
2023/10/02 00:45:01;;;;;;;29.42;20.52;;;;;;;13.39;79.24;98230.59;10364774;28;20264;-52
2023/10/02 00:50:19;;;;;;;;;;;;;;;13.45;78.96;98221.91;10365501;28;20088;-51
2023/10/02 00:55:20;;;;;;;28.55;19.92;;;;;;;13.51;78.92;98220.09;10363569;28;19952;-49
2023/10/02 01:00:21;;;;;;;25.83;19.65;;;;;;;13.46;79.44;98215.81;10368056;28;20555;-49
2023/10/02 01:05:30;;;;;;;28.70;21.13;;;;;;;13.25;78.90;98156.81;10372965;28;20549;-49
2023/10/02 01:10:29;;;;;;;29.03;21.40;;;;;;;13.55;78.99;98210.56;10373706;28;20087;-49
2023/10/02 01:15:29;;;;;;;28.85;20.05;;;;;;;13.52;78.49;98218.38;10375911;28;20071;-51
2023/10/02 01:20:35;;;;;;;27.10;20.08;;;;;;;13.31;78.72;98208.94;10375311;28;20072;-49
2023/10/02 01:25:37;;;;;;;27.98;20.50;;;;;;;13.17;78.69;98218.56;10375462;28;20114;-50
2023/10/02 01:30:37;;;;;;;29.42;20.48;;;;;;;13.19;78.43;98222.00;10374575;28;20061;-51
2023/10/02 01:35:36;;;;;;;26.38;20.38;;;;;;;13.21;78.69;98225.47;10375278;28;20495;-49
2023/10/02 01:40:35;;;;;;;27.35;19.98;;;;;;;13.14;79.13;98228.13;10375212;28;20318;-51
2023/10/02 01:45:34;;;;;;;29.65;20.50;;;;;;;12.99;79.57;98228.16;10374610;28;20049;-50
2023/10/02 01:50:36;;;;;;;29.00;20.08;;;;;;;13.11;78.70;98233.31;10374188;28;20071;-51
2023/10/02 01:55:35;;;;;;;26.67;20.10;;;;;;;13.03;79.33;98232.50;10375096;28;20084;-49
2023/10/02 02:00:34;;;;;;;28.95;21.35;;;;;;;13.09;79.24;98242.91;10373076;28;20068;-51
2023/10/02 02:05:34;;;;;;;28.10;19.85;;;;;;;12.84;79.75;98225.59;10372384;28;20075;-51
2023/10/02 02:10:33;;;;;;;29.27;21.40;;;;;;;12.97;79.15;98249.88;10370168;28;20076;-49
2023/10/02 02:15:32;;;;;;;30.58;22.20;;;;;;;12.96;79.85;98246.41;10369357;28;20509;-49
2023/10/02 02:25:49;;;;;;;30.13;22.27;;;;;;;12.89;79.72;98244.69;10367555;28;20012;-51
2023/10/02 02:30:48;;;;;;;34.83;23.17;;;;;;;12.86;79.71;98247.28;10369565;28;20072;-49
2023/10/02 02:35:48;;;;;;;36.97;25.42;;;;;;;12.83;80.00;98250.75;10368713;28;20071;-50
2023/10/02 02:41:05;;;;;;;37.13;25.10;;;;;;;12.83;80.25;98252.50;10369516;28;20067;-51
2023/10/02 02:46:08;;;;;;;39.38;25.92;;;;;;;12.73;80.80;98249.06;10366685;28;20064;-51
2023/10/02 02:51:14;;;;;;;36.10;24.20;;;;;;;11.98;80.83;98145.88;10369202;28;20075;-49
2023/10/02 02:56:22;;;;;;;36.28;24.45;;;;;;;12.61;80.98;98254.28;10368255;28;20065;-49
2023/10/02 03:01:22;;;;;;;35.20;23.88;;;;;;;12.56;81.37;98246.47;10368335;28;20079;-49
2023/10/02 03:06:22;;;;;;;33.58;24.98;;;;;;;12.51;81.34;98248.22;10367534;28;20480;-50
2023/10/02 03:11:23;;;;;;;36.17;24.38;;;;;;;12.48;81.94;98248.22;10368537;28;20069;-50
2023/10/02 03:16:39;;;;;;;34.47;24.42;;;;;;;12.34;82.30;98249.94;10366644;28;20136;-51
2023/10/02 03:21:38;;;;;;;32.50;24.13;;;;;;;12.25;82.60;98254.28;10366959;28;20194;-50
2023/10/02 03:26:37;;;;;;;36.33;25.13;;;;;;;12.18;82.28;98243.84;10367422;28;20037;-51
2023/10/02 03:31:43;;;;;;;37.15;24.90;;;;;;;12.15;82.58;98255.13;10367303;28;20032;-51
2023/10/02 03:36:42;;;;;;;34.80;23.65;;;;;;;12.14;82.17;98260.34;10366044;28;20119;-50
2023/10/02 03:41:44;;;;;;;38.35;24.42;;;;;;;12.14;82.54;98263.81;10366043;28;20044;-50
2023/10/02 03:46:43;;;;;;;38.15;25.02;;;;;;;12.15;82.24;98273.31;10366332;28;20460;-49
2023/10/02 03:51:42;;;;;;;37.55;25.20;;;;;;;12.06;82.48;98270.72;10366179;28;20531;-48
2023/10/02 03:56:42;;;;;;;38.50;24.80;;;;;;;12.00;82.56;98282.00;10366034;28;20424;-50
2023/10/02 04:01:41;;;;;;;35.88;23.58;;;;;;;12.01;82.70;98273.31;10366685;28;20579;-51
2023/10/02 04:06:42;;;;;;;42.78;25.98;;;;;;;11.94;82.20;98262.91;10365011;28;20582;-51
2023/10/02 04:11:42;;;;;;;40.03;25.38;;;;;;;11.92;82.68;98282.84;10366560;28;20072;-51
2023/10/02 04:16:41;;;;;;;41.95;25.10;;;;;;;11.92;82.81;98282.84;10338306;28;20085;-51
2023/10/02 04:21:42;;;;;;;38.03;25.73;;;;;;;11.94;82.56;98286.31;10367616;28;20158;-49
2023/10/02 04:26:48;;;;;;;35.13;24.00;;;;;;;11.86;82.80;98297.56;10366807;28;20067;-49
2023/10/02 04:32:11;;;;;;;39.97;24.55;;;;;;;11.82;83.08;98314.00;10367952;28;20064;-48
2023/10/02 04:37:22;;;;;;;36.88;24.30;;;;;;;11.82;82.89;98319.22;10366922;28;20077;-49
2023/10/02 04:42:25;;;;;;;33.17;21.80;;;;;;;11.42;85.17;98326.84;10366518;28;20406;-48
2023/10/02 04:47:30;;;;;;;42.05;26.13;;;;;;;11.54;85.09;98320.84;10368405;28;20064;-48
2023/10/02 04:57:50;;;;;;;38.30;26.40;;;;;;;11.66;84.38;98317.41;10366379;28;20064;-49
2023/10/02 05:02:48;;;;;;;37.58;26.40;;;;;;;11.80;84.33;98325.28;10365839;28;20534;-49
2023/10/02 05:07:48;;;;;;;40.65;25.92;;;;;;;11.92;84.71;98314.03;10368290;28;20512;-51
2023/10/02 05:12:46;;;;;;;41.53;27.25;;;;;;;12.15;84.57;98333.16;10365490;28;20079;-49
2023/10/02 05:17:46;;;;;;;41.65;27.55;;;;;;;12.30;83.77;98321.97;10364042;28;20117;-51
2023/10/02 05:22:57;;;;;;;37.97;24.50;;;;;;;12.30;82.93;98340.19;10364756;28;20095;-50
2023/10/02 05:27:57;;;;;;;37.85;24.35;;;;;;;12.28;83.12;98339.31;10361780;28;20623;-49
2023/10/02 05:32:56;;;;;;;32.92;23.38;;;;;;;12.50;83.23;98345.41;10369639;28;20084;-49
2023/10/02 05:37:57;;;;;;;41.20;26.40;;;;;;;12.72;82.53;98347.16;10345603;28;20045;-49
2023/10/02 05:47:59;;;;;;;40.13;25.55;;;;;;;13.10;81.82;98350.59;10369417;28;20076;-51
2023/10/02 05:52:58;;;;;;;43.45;30.88;;;;;;;13.27;82.19;98350.56;10333846;28;20072;-52
2023/10/02 05:57:58;;;;;;;40.08;25.92;;;;;;;13.45;81.60;98358.34;10333933;28;20113;-50
2023/10/02 06:02:58;;;;;;;38.03;24.23;;;;;;;13.65;81.33;98353.06;10334523;28;20069;-49
2023/10/02 06:07:59;;;;;;;40.40;24.60;;;;;;;13.83;80.77;98354.75;10336453;28;20520;-49
2023/10/02 06:13:07;;;;;;;33.35;24.90;;;;;;;13.91;80.58;98358.19;10336130;28;20081;-49
2023/10/02 06:18:06;;;;;;;34.28;24.35;;;;;;;14.08;80.02;98354.63;10352005;28;20083;-50
2023/10/02 06:23:19;;;;;;;;;;;;;;;14.16;79.96;98365.88;10373880;28;20044;-51
2023/10/02 06:28:27;;;;;;;55.70;41.35;;;;;;;14.12;79.77;98348.50;10375208;28;19940;-50
2023/10/02 06:33:26;;;;;;;46.58;30.85;;;;;;;14.28;80.06;98373.63;10374627;28;20076;-49
2023/10/02 06:38:25;;;;;;;;;;;;;;;14.34;80.23;98389.28;10375042;28;20048;-50
2023/10/02 06:43:29;;;;;;;35.33;25.98;;;;;;;14.59;79.40;98371.72;10374846;28;20143;-52
2023/10/02 06:48:28;;;;;;;36.63;25.45;;;;;;;14.84;78.92;98384.59;10374271;28;20542;-51
2023/10/02 06:53:27;;;;;;;;;;;;;;;15.00;78.35;98380.97;10339113;28;20528;-50
2023/10/02 06:58:26;;;;;;;34.45;23.63;;;;;;;15.17;77.83;98386.06;10356917;28;20401;-50
2023/10/02 07:03:24;;;;;;;;;;;;;;;15.11;77.14;98390.47;10374437;28;20083;-51
2023/10/02 07:08:28;;;;;;;28.23;20.40;;;;;;;15.30;76.37;98380.72;10374847;28;20000;-49
2023/10/02 07:13:27;;;;;;;25.85;20.25;;;;;;;15.62;75.82;98383.88;10373672;28;20103;-50
2023/10/02 07:18:37;;;;;;;;;;;;;;;15.82;74.70;98390.66;10374220;28;20594;-50
2023/10/02 07:23:37;;;;;;;24.48;17.00;;;;;;;16.25;72.91;98385.72;10373590;28;19956;-51
2023/10/02 07:28:49;;;;;;;23.10;16.50;;;;;;;16.35;71.66;98382.97;10372645;28;20438;-51
2023/10/02 07:33:54;;;;;;;27.38;16.52;;;;;;;16.71;70.27;98384.19;10373062;28;20492;-52
2023/10/02 07:38:54;;;;;;;25.00;16.20;;;;;;;16.98;68.51;98392.53;10373192;28;20076;-51
2023/10/02 07:44:07;;;;;;;25.05;15.98;;;;;;;17.28;66.05;98380.63;10372641;28;20067;-49
2023/10/02 07:49:06;;;;;;;23.38;14.40;;;;;;;17.54;63.03;98398.53;10373232;28;20512;-49
2023/10/02 07:54:13;;;;;;;13.52;8.32;;;;;;;17.54;53.17;98393.28;10371920;28;20483;-50
2023/10/02 07:59:14;;;;;;;15.88;8.85;;;;;;;17.94;54.04;98397.78;10371830;28;20084;-51
2023/10/02 08:04:13;;;;;;;13.75;8.48;;;;;;;18.16;50.50;98380.69;10371665;28;20110;-51
2023/10/02 08:14:38;;;;;;;12.45;7.68;;;;;;;18.50;46.41;98384.31;10371739;28;20503;-51
2023/10/02 08:19:37;;;;;;;13.82;8.15;;;;;;;18.55;46.42;98354.41;10371178;28;20081;-51
2023/10/02 08:24:37;;;;;;;13.13;7.85;;;;;;;18.80;45.26;98359.09;10372222;28;20110;-51
2023/10/02 08:29:37;;;;;;;10.75;6.80;;;;;;;19.07;42.53;98378.59;10371464;28;20072;-51
2023/10/02 08:34:36;;;;;;;12.90;7.57;;;;;;;19.24;41.68;98383.44;10371092;28;20513;-51
2023/10/02 08:39:37;;;;;;;11.73;7.03;;;;;;;19.42;40.58;98361.88;10371336;28;20068;-52
2023/10/02 08:44:41;;;;;;;12.50;7.22;;;;;;;19.52;39.94;98370.41;10371468;28;20757;-50
2023/10/02 08:49:41;;;;;;;11.65;6.55;;;;;;;19.80;38.84;98362.63;10370741;28;20072;-51
2023/10/02 08:54:41;;;;;;;12.40;7.05;;;;;;;19.73;39.04;98368.97;10370228;28;20167;-52
2023/10/02 08:59:40;;;;;;;10.98;6.03;;;;;;;19.88;35.20;98367.66;10370533;28;20092;-52
2023/10/02 09:04:57;;;;;;;12.10;6.07;;;;;;;20.10;35.31;98360.00;10370260;28;20072;-52
2023/10/02 09:10:18;;;;;;;10.48;6.10;;;;;;;19.85;34.88;98294.88;10371318;28;20367;-52
2023/10/02 09:15:35;;;;;;;11.05;6.75;;;;;;;20.02;33.82;98359.34;10373796;28;20076;-52
2023/10/02 09:20:51;;;;;;;12.48;6.40;;;;;;;20.33;33.99;98347.88;10376203;28;20091;-52
2023/10/02 09:26:16;;;;;;;10.70;5.95;;;;;;;20.55;33.49;98359.53;10381179;28;20056;-52
2023/10/02 09:31:17;;;;;;;12.70;5.80;;;;;;;20.50;34.94;98335.09;10380857;28;20060;-52
2023/10/02 09:36:19;;;;;;;11.18;5.65;;;;;;;20.68;34.88;98355.59;10380568;28;20614;-52
2023/10/02 09:41:20;;;;;;;10.40;5.80;;;;;;;20.64;36.13;98359.25;10381276;28;20077;-52
2023/10/02 09:46:22;;;;;;;11.50;6.18;;;;;;;20.79;35.79;98343.81;10380744;28;20488;-51
2023/10/02 09:51:30;;;;;;;10.90;5.82;;;;;;;20.96;35.38;98354.69;10380605;28;20068;-52
2023/10/02 09:56:34;;;;;;;11.07;5.63;;;;;;;20.95;35.07;98358.22;10378818;28;20784;-51
2023/10/02 10:01:35;;;;;;;11.57;5.95;;;;;;;21.04;35.50;98363.22;10379985;28;20087;-52
2023/10/02 10:06:49;;;;;;;12.05;6.22;;;;;;;20.93;36.06;98366.19;10379312;28;20072;-51
2023/10/02 10:12:21;;;;;;;10.95;4.95;;;;;;;20.86;36.05;98325.09;10377869;28;20072;-52
2023/10/02 10:17:17;;;;;;;11.32;5.65;;;;;;;21.13;36.43;98356.75;10375665;28;20068;-52
2023/10/02 10:22:50;;;;;;;9.45;5.68;;;;;;;21.32;35.95;98346.47;10375108;28;20091;-51
2023/10/02 10:28:06;;;;;;;8.98;5.20;;;;;;;21.09;36.15;98302.34;10375313;28;20545;-50
2023/10/02 10:38:21;;;;;;;12.35;5.50;;;;;;;21.34;36.52;98328.78;10374873;28;20076;-52
2023/10/02 10:43:43;;;;;;;10.65;5.45;;;;;;;21.37;36.20;98323.41;10414616;28;20072;-52
2023/10/02 10:48:48;;;;;;;9.70;5.50;;;;;;;21.76;35.98;98321.09;10416466;28;20464;-50
2023/10/02 10:53:54;;;;;;;11.82;5.30;;;;;;;21.97;35.87;98318.56;10416022;28;20186;-52
2023/10/02 10:59:10;;;;;;;10.93;5.30;;;;;;;21.96;35.40;98312.38;10415483;28;20076;-52
2023/10/02 11:04:13;;;;;;;10.52;5.30;;;;;;;21.93;35.28;98264.94;10413959;28;20499;-53
2023/10/02 11:09:12;;;;;;;11.85;5.45;;;;;;;22.11;35.54;98299.56;10414928;28;20083;-52
2023/10/02 11:14:11;;;;;;;15.35;5.30;;;;;;;22.09;35.26;98296.13;10414941;28;20028;-52
2023/10/02 11:24:21;;;;;;;11.63;5.10;;;;;;;22.09;35.45;98290.81;10414914;28;20084;-53
2023/10/02 11:29:21;;;;;;;11.05;4.85;;;;;;;21.56;35.74;98286.63;10415082;28;20079;-52
2023/10/02 11:34:20;;;;;;;11.68;6.22;;;;;;;21.86;35.47;98292.53;10414277;28;20064;-52
2023/10/02 11:39:28;;;;;;;13.32;5.63;;;;;;;21.39;35.46;98252.91;10413987;28;20084;-52
2023/10/02 11:44:27;;;;;;;11.37;5.97;;;;;;;21.46;35.37;98253.56;10413838;28;20075;-52
2023/10/02 11:49:29;;;;;;;13.43;5.80;;;;;;;21.92;35.92;98289.66;10414337;28;20060;-52
2023/10/02 11:54:28;;;;;;;11.77;6.07;;;;;;;22.12;35.59;98306.56;10413158;28;20508;-52
2023/10/02 11:59:30;;;;;;;10.88;5.40;;;;;;;21.76;35.78;98307.03;10414377;28;20475;-52
2023/10/02 12:04:31;;;;;;;12.05;5.15;;;;;;;21.76;36.36;98283.25;10413596;28;20502;-52
2023/10/02 12:09:32;;;;;;;10.82;5.40;;;;;;;22.10;36.06;98296.03;10413283;28;20072;-52
2023/10/02 12:14:31;;;;;;;10.32;5.05;;;;;;;22.18;36.36;98295.75;10416891;28;20076;-52
2023/10/02 12:19:36;;;;;;;10.73;4.90;;;;;;;22.28;35.58;98304.19;10416413;28;20080;-52
2023/10/02 12:24:37;;;;;;;10.40;5.07;;;;;;;21.91;36.25;98268.56;10417484;28;20036;-53
2023/10/02 12:29:37;;;;;;;10.95;4.75;;;;;;;22.16;36.03;98282.59;10415201;28;20543;-52
2023/10/02 12:34:36;;;;;;;12.20;5.60;;;;;;;22.23;36.25;98292.94;10415399;28;20125;-52
2023/10/02 12:39:35;;;;;;;9.65;5.07;;;;;;;22.10;36.44;98293.38;10415993;28;20064;-52
2023/10/02 12:44:39;;;;;;;11.90;4.50;;;;;;;21.96;36.63;98291.25;10414763;28;20076;-53
2023/10/02 12:49:38;;;;;;;10.75;5.45;;;;;;;21.90;36.73;98303.88;10415454;28;20072;-52
2023/10/02 12:54:37;;;;;;;11.52;5.18;;;;;;;21.72;37.85;98300.13;10416546;28;20072;-52
2023/10/02 12:59:37;;;;;;;11.93;6.13;;;;;;;21.74;37.95;98293.00;10423918;28;20080;-52
2023/10/02 13:04:36;;;;;;;10.52;5.72;;;;;;;21.76;38.12;98296.47;10423740;28;20188;-53
2023/10/02 13:09:35;;;;;;;10.90;5.30;;;;;;;21.44;38.84;98301.13;10422994;28;20064;-52
2023/10/02 13:14:34;;;;;;;12.02;5.78;;;;;;;21.12;39.49;98263.53;10419440;28;20032;-52
2023/10/02 13:19:34;;;;;;;11.10;5.78;;;;;;;21.34;39.81;98302.41;10419356;28;20124;-52
2023/10/02 13:24:33;;;;;;;9.52;6.32;;;;;;;21.05;40.85;98312.13;10420027;28;20076;-52
2023/10/02 13:29:34;;;;;;;12.18;7.15;;;;;;;20.85;41.74;98325.16;10419029;28;20052;-52
2023/10/02 13:34:33;;;;;;;12.15;6.63;;;;;;;20.89;42.06;98322.38;10418394;28;20075;-51
2023/10/02 13:39:36;;;;;;;14.43;7.60;;;;;;;20.75;42.72;98329.91;10418635;28;20064;-53
2023/10/02 13:44:35;;;;;;;15.38;7.50;;;;;;;20.76;42.81;98322.84;10418555;28;20468;-52
2023/10/02 13:49:34;;;;;;;12.88;6.75;;;;;;;20.81;42.87;98326.19;10418212;28;20559;-52
2023/10/02 13:54:33;;;;;;;17.38;8.57;;;;;;;20.42;43.87;98327.44;10418538;28;20478;-52
2023/10/02 13:59:32;;;;;;;13.27;7.72;;;;;;;20.60;43.87;98330.38;10417757;28;20068;-52
2023/10/02 14:04:32;;;;;;;16.38;10.35;;;;;;;20.45;44.62;98334.38;10417474;28;20487;-52
2023/10/02 14:09:33;;;;;;;15.35;9.85;;;;;;;20.50;44.52;98329.81;10416596;28;20072;-52
2023/10/02 14:14:32;;;;;;;22.02;11.45;;;;;;;20.49;44.70;98335.97;10418240;28;20130;-51
2023/10/02 14:19:31;;;;;;;17.38;9.10;;;;;;;20.63;44.77;98333.78;10417280;28;20052;-52
2023/10/02 14:24:31;;;;;;;12.85;8.45;;;;;;;20.63;44.92;98343.47;10417163;28;20076;-52
2023/10/02 14:29:30;;;;;;;17.02;8.52;;;;;;;20.18;45.79;98326.38;10416539;28;20060;-52
2023/10/02 14:34:32;;;;;;;16.17;8.68;;;;;;;20.36;45.87;98339.91;10405905;28;20075;-52
2023/10/02 14:39:31;;;;;;;15.40;8.73;;;;;;;20.41;45.99;98352.06;10376392;28;20100;-52
2023/10/02 14:44:30;;;;;;;22.30;11.50;;;;;;;20.27;46.02;98317.31;10374474;28;20464;-52
2023/10/02 14:49:31;;;;;;;16.45;8.93;;;;;;;20.34;46.07;98354.91;10375521;28;20552;-52
2023/10/02 14:54:31;;;;;;;15.60;8.40;;;;;;;20.22;46.53;98357.00;10375642;28;20063;-52
2023/10/02 14:59:30;;;;;;;18.58;9.65;;;;;;;20.17;46.93;98356.28;10377765;28;20112;-51
2023/10/02 15:04:33;;;;;;;15.48;9.02;;;;;;;20.01;47.24;98358.50;10376976;28;20072;-52
2023/10/02 15:09:32;;;;;;;17.77;9.07;;;;;;;20.11;47.41;98372.25;10376597;28;20061;-52
2023/10/02 15:14:35;;;;;;;26.90;9.38;;;;;;;19.86;47.89;98356.31;10379712;28;20530;-52
2023/10/02 15:19:34;;;;;;;16.38;8.27;;;;;;;19.98;47.78;98378.81;10376965;28;20083;-51
2023/10/02 15:24:35;;;;;;;17.73;9.35;;;;;;;20.01;47.72;98379.56;10380113;28;20068;-52
2023/10/02 15:29:34;;;;;;;17.27;9.45;;;;;;;20.17;47.42;98387.91;10379946;28;20071;-52
2023/10/02 15:34:34;;;;;;;18.85;9.05;;;;;;;20.00;47.89;98393.66;10378927;28;20056;-52
2023/10/02 15:39:33;;;;;;;16.38;9.15;;;;;;;20.06;48.00;98397.88;10377017;28;20065;-52
2023/10/02 15:44:32;;;;;;;15.68;9.38;;;;;;;19.63;48.02;98352.56;10377497;28;20060;-52
2023/10/02 15:49:31;;;;;;;17.15;8.85;;;;;;;19.79;48.10;98394.25;10378635;28;20052;-53
2023/10/02 15:54:30;;;;;;;15.52;9.43;;;;;;;19.84;47.96;98398.50;10378617;28;20472;-52
2023/10/02 15:59:29;;;;;;;16.95;9.68;;;;;;;19.85;48.02;98405.50;10378931;28;20065;-52
2023/10/02 16:04:28;;;;;;;20.33;9.73;;;;;;;19.76;48.13;98408.38;10377406;28;20024;-52
2023/10/02 16:09:27;;;;;;;15.93;8.65;;;;;;;19.63;48.51;98420.16;10378349;28;20028;-52
2023/10/02 16:14:26;;;;;;;16.27;9.18;;;;;;;19.39;49.12;98426.88;10373806;28;20072;-52
2023/10/02 16:19:25;;;;;;;19.80;9.07;;;;;;;19.40;49.36;98434.75;10371470;28;20118;-52
2023/10/02 16:24:26;;;;;;;21.13;11.02;;;;;;;19.24;49.80;98438.69;10360932;28;20056;-51
2023/10/02 16:29:26;;;;;;;19.33;9.65;;;;;;;19.20;49.79;98442.28;10363685;28;20181;-52
2023/10/02 16:34:27;;;;;;;21.45;10.25;;;;;;;19.08;50.18;98447.84;10360734;28;20379;-52
2023/10/02 16:39:26;;;;;;;17.52;10.52;;;;;;;19.07;50.20;98454.03;10365781;28;20064;-52
2023/10/02 16:44:25;;;;;;;19.60;12.35;;;;;;;18.37;50.50;98362.72;10364838;28;20075;-52
2023/10/02 16:49:25;;;;;;;21.45;12.48;;;;;;;18.90;50.51;98463.19;10365610;28;20086;-52
2023/10/02 16:54:24;;;;;;;18.80;11.52;;;;;;;18.77;50.89;98459.09;10363024;28;20580;-51
2023/10/02 16:59:23;;;;;;;26.77;11.73;;;;;;;18.76;50.69;98466.13;10364820;28;20515;-51
2023/10/02 17:04:25;;;;;;;23.80;12.25;;;;;;;18.72;51.35;98472.34;10358174;28;20017;-52
2023/10/02 17:09:26;;;;;;;20.88;11.70;;;;;;;18.66;51.83;98480.31;10364573;28;20313;-51
2023/10/02 17:14:25;;;;;;;20.27;11.82;;;;;;;18.56;52.43;98484.94;10363676;28;20546;-52
2023/10/02 17:19:24;;;;;;;19.35;12.27;;;;;;;18.42;53.54;98473.84;10363611;28;20529;-51
2023/10/02 17:24:23;;;;;;;21.13;11.85;;;;;;;18.29;54.31;98494.28;10364307;28;20084;-53
2023/10/02 17:29:22;;;;;;;18.45;10.73;;;;;;;18.15;54.72;98497.16;10363989;28;20025;-52
2023/10/02 17:34:21;;;;;;;25.48;10.77;;;;;;;18.03;55.02;98504.41;10363639;28;20040;-52
2023/10/02 17:39:21;;;;;;;22.95;11.02;;;;;;;17.82;55.46;98492.53;10364213;28;20041;-51
2023/10/02 17:44:20;;;;;;;19.63;11.52;;;;;;;17.48;55.69;98452.00;10371112;28;20135;-51
2023/10/02 17:49:18;;;;;;;21.08;11.18;;;;;;;17.60;55.84;98508.66;10371468;28;20032;-51
2023/10/02 17:54:18;;;;;;;18.13;11.68;;;;;;;17.46;56.25;98518.50;10370371;28;20540;-52
2023/10/02 17:59:17;;;;;;;19.17;11.02;;;;;;;17.31;56.71;98515.25;10370695;28;20073;-51
2023/10/02 18:04:16;;;;;;;19.08;10.27;;;;;;;17.18;56.96;98518.94;10370027;28;20098;-50
2023/10/02 18:09:17;;;;;;;21.85;11.55;;;;;;;16.42;57.50;98419.56;10370600;28;20072;-50
2023/10/02 18:14:17;;;;;;;18.27;11.15;;;;;;;16.93;57.83;98527.19;10370464;28;20071;-52
2023/10/02 18:19:16;;;;;;;16.65;10.40;;;;;;;16.82;58.49;98541.34;10367977;28;20132;-51
2023/10/02 18:24:16;;;;;;;16.33;10.32;;;;;;;16.69;58.83;98545.81;10369139;28;20048;-52
2023/10/02 18:29:15;;;;;;;22.60;10.57;;;;;;;16.41;59.27;98519.09;10370747;28;20073;-51
2023/10/02 18:34:14;;;;;;;18.20;10.25;;;;;;;16.38;59.98;98542.72;10369672;28;20090;-50
2023/10/02 18:39:15;;;;;;;;;;;;;;;16.25;60.57;98552.47;10369838;28;20041;-52
2023/10/02 18:44:14;;;;;;;17.35;11.07;;;;;;;16.08;60.80;98553.50;10282269;28;20381;-51
2023/10/02 18:49:14;;;;;;;19.60;11.07;;;;;;;15.95;61.78;98570.25;10327896;28;20129;-52
2023/10/02 18:54:13;;;;;;;18.15;11.75;;;;;;;15.77;62.77;98575.59;10326259;28;20479;-52
2023/10/02 18:59:12;;;;;;;;;;;;;;;15.64;63.14;98580.91;10328199;28;20784;-51
2023/10/02 19:04:11;;;;;;;20.35;13.05;;;;;;;15.39;63.36;98548.88;10327082;28;20374;-52
2023/10/02 19:09:12;;;;;;;;;;;;;;;15.40;64.15;98581.97;10327435;28;20524;-51
2023/10/02 19:14:11;;;;;;;30.42;13.65;;;;;;;15.30;64.63;98590.78;10325840;28;19979;-51
2023/10/02 19:19:10;;;;;;;22.90;13.40;;;;;;;15.14;65.97;98587.38;10326143;28;20096;-51
2023/10/02 19:24:09;;;;;;;;;;;;;;;15.07;65.53;98596.16;10326235;28;20049;-52
2023/10/02 19:29:08;;;;;;;21.20;13.60;;;;;;;14.88;65.84;98576.22;10326112;28;19970;-52
2023/10/02 19:34:07;;;;;;;19.88;12.43;;;;;;;14.89;66.02;98588.41;10326438;28;20069;-51
2023/10/02 19:39:08;;;;;;;;;;;;;;;14.87;66.28;98596.25;10326624;28;20043;-51
2023/10/02 19:44:07;;;;;;;18.65;11.13;;;;;;;14.86;66.12;98594.50;10325357;28;19971;-52
2023/10/02 19:49:06;;;;;;;;;;;;;;;14.72;67.86;98605.03;10325738;28;20108;-51
2023/10/02 19:54:05;;;;;;;21.47;12.77;;;;;;;14.03;69.03;98531.22;10325054;28;19944;-51
2023/10/02 19:59:04;;;;;;;20.92;13.02;;;;;;;14.22;69.70;98592.06;10325309;28;20363;-51
2023/10/02 20:04:04;;;;;;;21.73;12.50;;;;;;;14.21;70.11;98604.28;10324608;28;20029;-51
2023/10/02 20:09:05;;;;;;;24.80;15.50;;;;;;;14.11;70.74;98607.78;10324681;28;20053;-50
2023/10/02 20:14:05;;;;;;;21.92;15.85;;;;;;;13.92;70.40;98597.34;10328443;28;20083;-51
2023/10/02 20:19:04;;;;;;;26.55;17.17;;;;;;;14.03;70.44;98614.72;10328401;28;20099;-51
2023/10/02 20:24:05;;;;;;;;;;;;;;;13.96;70.77;98621.69;10327716;28;20073;-49
2023/10/02 20:29:04;;;;;;;26.90;16.55;;;;;;;13.92;71.35;98614.75;10328215;28;20349;-52
2023/10/02 20:34:04;;;;;;;;;;;;;;;13.88;70.83;98621.72;10328420;28;20057;-52
2023/10/02 20:39:03;;;;;;;29.98;17.25;;;;;;;13.91;71.03;98626.06;10326967;28;19968;-49
2023/10/02 20:44:01;;;;;;;;;;;;;;;13.90;70.75;98630.41;10328364;28;20477;-51
2023/10/02 20:49:00;;;;;;;26.48;16.70;;;;;;;13.90;70.64;98629.53;10327422;28;20608;-49
2023/10/02 20:53:59;;;;;;;;;;;;;;;13.82;70.95;98637.38;10327093;28;20477;-51
2023/10/02 20:59:00;;;;;;;25.08;16.00;;;;;;;13.72;71.87;98638.22;10326917;28;20020;-52
2023/10/02 21:04:00;;;;;;;26.63;16.48;;;;;;;13.71;72.64;98636.50;10326672;28;20080;-50
2023/10/02 21:08:59;;;;;;;22.70;15.05;;;;;;;13.63;72.67;98638.22;10326640;28;20072;-52
2023/10/02 21:13:58;;;;;;;;;;;;;;;13.65;72.82;98639.09;10324667;28;20080;-51
2023/10/02 21:18:57;;;;;;;25.52;14.90;;;;;;;13.57;72.44;98632.13;10330215;28;19917;-49
2023/10/02 21:23:56;;;;;;;22.70;16.15;;;;;;;13.54;72.83;98639.97;10330644;28;20443;-51
2023/10/02 21:28:55;;;;;;;;;;;;;;;13.53;72.77;98639.91;10331287;28;20112;-50
2023/10/02 21:33:54;;;;;;;28.55;16.15;;;;;;;13.59;72.61;98645.19;10330821;28;20332;-52
2023/10/02 21:38:53;;;;;;;26.92;15.45;;;;;;;13.61;72.53;98643.47;10330707;28;20113;-49
2023/10/02 21:43:53;;;;;;;24.17;14.85;;;;;;;13.61;72.45;98645.16;10329382;28;20144;-48
2023/10/02 21:48:52;;;;;;;21.30;14.50;;;;;;;13.56;72.82;98640.84;10330925;28;20069;-49
2023/10/02 21:53:51;;;;;;;21.65;14.48;;;;;;;13.50;72.75;98643.41;10329994;28;20475;-51
2023/10/02 21:58:50;;;;;;;;;;;;;;;13.49;72.84;98636.44;10330576;28;20493;-50
2023/10/02 22:03:52;;;;;;;24.65;14.20;;;;;;;13.47;72.99;98640.78;10329883;28;20303;-51
2023/10/02 22:08:51;;;;;;;27.20;15.05;;;;;;;13.42;73.48;98642.53;10329021;28;20069;-51
2023/10/02 22:13:50;;;;;;;23.13;15.35;;;;;;;13.40;73.87;98643.38;10330320;28;20045;-51
2023/10/02 22:18:50;;;;;;;;;;;;;;;13.35;73.75;98640.75;10329432;28;20073;-51
2023/10/02 22:23:49;;;;;;;23.25;14.55;;;;;;;13.34;74.10;98645.09;10325777;28;20416;-51
2023/10/02 22:28:48;;;;;;;21.92;14.73;;;;;;;13.15;75.09;98645.94;10324896;28;20037;-52
2023/10/02 22:33:47;;;;;;;;;;;;;;;12.94;76.01;98651.94;10326614;28;20129;-52
2023/10/02 22:38:46;;;;;;;22.38;13.95;;;;;;;12.77;76.41;98662.28;10327899;28;19952;-50
2023/10/02 22:43:46;;;;;;;20.15;13.35;;;;;;;12.64;76.45;98657.88;10328696;28;20124;-52
2023/10/02 22:48:50;;;;;;;24.20;14.63;;;;;;;12.54;76.43;98656.94;10327908;28;20069;-51
2023/10/02 22:53:48;;;;;;;23.92;14.35;;;;;;;12.50;76.46;98660.41;10327354;28;20113;-49
2023/10/02 22:58:48;;;;;;;21.17;14.27;;;;;;;12.46;76.50;98663.84;10327132;28;20029;-49
2023/10/02 23:03:48;;;;;;;24.23;15.40;;;;;;;12.41;76.89;98665.53;10327030;28;20069;-50
2023/10/02 23:08:47;;;;;;;24.83;15.48;;;;;;;12.37;77.21;98663.78;10328449;28;20065;-49
2023/10/02 23:13:46;;;;;;;23.83;15.45;;;;;;;12.32;77.47;98666.34;10329371;28;20112;-50
2023/10/02 23:18:46;;;;;;;28.23;16.15;;;;;;;12.27;77.52;98665.41;10330100;28;20033;-49
2023/10/02 23:23:45;;;;;;;22.75;15.80;;;;;;;12.14;77.96;98661.88;10329792;28;20065;-49
2023/10/02 23:28:45;;;;;;;22.52;15.70;;;;;;;12.06;78.12;98650.53;10329631;28;20372;-49
2023/10/02 23:33:45;;;;;;;26.02;15.10;;;;;;;12.06;78.10;98661.81;10330549;28;20057;-49
2023/10/02 23:38:44;;;;;;;25.15;15.48;;;;;;;12.00;77.91;98660.91;10329590;28;20069;-49
2023/10/02 23:43:43;;;;;;;24.10;14.48;;;;;;;11.79;78.06;98626.06;10328375;28;20124;-49